sensor_id;sensor_type;location;lat;lon;timestamp;temperature;humidity
68912;SHT31;55953;51.650;-0.522;2023-04-06T00:00:03;9.47;85.26
68912;SHT31;55953;51.650;-0.522;2023-04-06T00:02:55;9.47;85.37
68912;SHT31;55953;51.650;-0.522;2023-04-06T00:05:24;9.44;85.28
68912;SHT31;55953;51.650;-0.522;2023-04-06T00:07:51;9.44;85.48
68912;SHT31;55953;51.650;-0.522;2023-04-06T00:10:21;9.45;85.60
68912;SHT31;55953;51.650;-0.522;2023-04-06T00:12:49;9.48;85.55
68912;SHT31;55953;51.650;-0.522;2023-04-06T00:15:17;9.50;85.49
68912;SHT31;55953;51.650;-0.522;2023-04-06T00:17:45;9.50;85.41
68912;SHT31;55953;51.650;-0.522;2023-04-06T00:20:13;9.48;85.55
68912;SHT31;55953;51.650;-0.522;2023-04-06T00:22:41;9.47;85.84
68912;SHT31;55953;51.650;-0.522;2023-04-06T00:25:09;9.44;85.91
68912;SHT31;55953;51.650;-0.522;2023-04-06T00:27:38;9.42;85.86
68912;SHT31;55953;51.650;-0.522;2023-04-06T00:30:07;9.44;85.82
68912;SHT31;55953;51.650;-0.522;2023-04-06T00:32:35;9.44;85.81
68912;SHT31;55953;51.650;-0.522;2023-04-06T00:35:03;9.45;85.96
68912;SHT31;55953;51.650;-0.522;2023-04-06T00:37:32;9.44;85.88
68912;SHT31;55953;51.650;-0.522;2023-04-06T00:40:01;9.46;85.96
68912;SHT31;55953;51.650;-0.522;2023-04-06T00:42:29;9.46;85.91
68912;SHT31;55953;51.650;-0.522;2023-04-06T00:44:58;9.49;85.96
68912;SHT31;55953;51.650;-0.522;2023-04-06T00:47:28;9.51;85.96
68912;SHT31;55953;51.650;-0.522;2023-04-06T00:49:56;9.51;85.93
68912;SHT31;55953;51.650;-0.522;2023-04-06T00:52:24;9.52;85.86
68912;SHT31;55953;51.650;-0.522;2023-04-06T00:54:52;9.47;85.99
68912;SHT31;55953;51.650;-0.522;2023-04-06T00:57:22;9.46;86.16
68912;SHT31;55953;51.650;-0.522;2023-04-06T00:59:54;9.44;86.32
68912;SHT31;55953;51.650;-0.522;2023-04-06T01:02:23;9.41;86.37
68912;SHT31;55953;51.650;-0.522;2023-04-06T01:04:53;9.42;86.36
68912;SHT31;55953;51.650;-0.522;2023-04-06T01:07:33;9.41;86.30
68912;SHT31;55953;51.650;-0.522;2023-04-06T01:10:06;9.40;86.57
68912;SHT31;55953;51.650;-0.522;2023-04-06T01:12:35;9.41;86.58
68912;SHT31;55953;51.650;-0.522;2023-04-06T01:15:06;9.41;86.59
68912;SHT31;55953;51.650;-0.522;2023-04-06T01:17:35;9.43;86.50
68912;SHT31;55953;51.650;-0.522;2023-04-06T01:20:08;9.46;86.47
68912;SHT31;55953;51.650;-0.522;2023-04-06T01:22:37;9.49;86.47
68912;SHT31;55953;51.650;-0.522;2023-04-06T01:25:05;9.51;86.45
68912;SHT31;55953;51.650;-0.522;2023-04-06T01:27:41;9.48;86.56
68912;SHT31;55953;51.650;-0.522;2023-04-06T01:30:12;9.48;86.60
68912;SHT31;55953;51.650;-0.522;2023-04-06T01:32:47;9.49;86.54
68912;SHT31;55953;51.650;-0.522;2023-04-06T01:35:18;9.49;86.59
68912;SHT31;55953;51.650;-0.522;2023-04-06T01:37:59;9.49;86.74
68912;SHT31;55953;51.650;-0.522;2023-04-06T01:40:30;9.48;86.70
68912;SHT31;55953;51.650;-0.522;2023-04-06T01:42:58;9.51;86.68
68912;SHT31;55953;51.650;-0.522;2023-04-06T01:45:34;9.51;86.58
68912;SHT31;55953;51.650;-0.522;2023-04-06T01:48:10;9.48;86.65
68912;SHT31;55953;51.650;-0.522;2023-04-06T01:50:38;9.49;86.69
68912;SHT31;55953;51.650;-0.522;2023-04-06T01:53:07;9.50;86.76
68912;SHT31;55953;51.650;-0.522;2023-04-06T01:55:36;9.51;86.73
68912;SHT31;55953;51.650;-0.522;2023-04-06T01:58:18;9.53;86.69
68912;SHT31;55953;51.650;-0.522;2023-04-06T02:00:47;9.52;86.75
68912;SHT31;55953;51.650;-0.522;2023-04-06T02:03:15;9.51;86.77
68912;SHT31;55953;51.650;-0.522;2023-04-06T02:05:43;9.49;86.98
68912;SHT31;55953;51.650;-0.522;2023-04-06T02:08:17;9.48;86.91
68912;SHT31;55953;51.650;-0.522;2023-04-06T02:10:46;9.48;86.97
68912;SHT31;55953;51.650;-0.522;2023-04-06T02:13:22;9.48;87.15
68912;SHT31;55953;51.650;-0.522;2023-04-06T02:15:52;9.48;87.20
68912;SHT31;55953;51.650;-0.522;2023-04-06T02:18:20;9.48;87.10
68912;SHT31;55953;51.650;-0.522;2023-04-06T02:20:48;9.48;87.19
68912;SHT31;55953;51.650;-0.522;2023-04-06T02:23:16;9.47;87.28
68912;SHT31;55953;51.650;-0.522;2023-04-06T02:25:44;9.47;87.30
68912;SHT31;55953;51.650;-0.522;2023-04-06T02:28:12;9.48;87.28
68912;SHT31;55953;51.650;-0.522;2023-04-06T02:30:40;9.47;87.47
68912;SHT31;55953;51.650;-0.522;2023-04-06T02:33:08;9.47;87.50
68912;SHT31;55953;51.650;-0.522;2023-04-06T02:35:46;9.49;87.42
68912;SHT31;55953;51.650;-0.522;2023-04-06T02:38:14;9.50;87.47
68912;SHT31;55953;51.650;-0.522;2023-04-06T02:40:42;9.51;87.53
68912;SHT31;55953;51.650;-0.522;2023-04-06T02:43:19;9.51;87.50
68912;SHT31;55953;51.650;-0.522;2023-04-06T02:45:49;9.51;87.56
68912;SHT31;55953;51.650;-0.522;2023-04-06T02:48:18;9.53;87.54
68912;SHT31;55953;51.650;-0.522;2023-04-06T02:50:45;9.53;87.60
68912;SHT31;55953;51.650;-0.522;2023-04-06T02:53:13;9.55;87.54
68912;SHT31;55953;51.650;-0.522;2023-04-06T02:55:41;9.57;87.54
68912;SHT31;55953;51.650;-0.522;2023-04-06T02:58:09;9.61;87.60
68912;SHT31;55953;51.650;-0.522;2023-04-06T03:00:44;9.62;87.55
68912;SHT31;55953;51.650;-0.522;2023-04-06T03:03:12;9.64;87.60
68912;SHT31;55953;51.650;-0.522;2023-04-06T03:05:40;9.66;87.46
68912;SHT31;55953;51.650;-0.522;2023-04-06T03:08:08;9.66;87.38
68912;SHT31;55953;51.650;-0.522;2023-04-06T03:10:41;9.66;87.41
68912;SHT31;55953;51.650;-0.522;2023-04-06T03:13:09;9.68;87.58
68912;SHT31;55953;51.650;-0.522;2023-04-06T03:15:49;9.69;87.56
68912;SHT31;55953;51.650;-0.522;2023-04-06T03:18:21;9.69;87.54
68912;SHT31;55953;51.650;-0.522;2023-04-06T03:20:51;9.70;87.57
68912;SHT31;55953;51.650;-0.522;2023-04-06T03:23:26;9.74;87.58
68912;SHT31;55953;51.650;-0.522;2023-04-06T03:25:57;9.75;87.69
68912;SHT31;55953;51.650;-0.522;2023-04-06T03:28:25;9.76;87.68
68912;SHT31;55953;51.650;-0.522;2023-04-06T03:30:59;9.77;87.57
68912;SHT31;55953;51.650;-0.522;2023-04-06T03:33:56;9.78;87.55
68912;SHT31;55953;51.650;-0.522;2023-04-06T03:36:27;9.77;87.63
68912;SHT31;55953;51.650;-0.522;2023-04-06T03:38:56;9.76;87.78
68912;SHT31;55953;51.650;-0.522;2023-04-06T03:41:24;9.77;87.83
68912;SHT31;55953;51.650;-0.522;2023-04-06T03:44:00;9.79;87.81
68912;SHT31;55953;51.650;-0.522;2023-04-06T03:46:28;9.77;87.82
68912;SHT31;55953;51.650;-0.522;2023-04-06T03:48:57;9.77;87.94
68912;SHT31;55953;51.650;-0.522;2023-04-06T03:51:25;9.75;88.01
68912;SHT31;55953;51.650;-0.522;2023-04-06T03:53:54;9.75;88.14
68912;SHT31;55953;51.650;-0.522;2023-04-06T03:56:23;9.76;88.09
68912;SHT31;55953;51.650;-0.522;2023-04-06T03:58:50;9.79;88.02
68912;SHT31;55953;51.650;-0.522;2023-04-06T04:01:20;9.81;88.07
68912;SHT31;55953;51.650;-0.522;2023-04-06T04:03:48;9.81;88.10
68912;SHT31;55953;51.650;-0.522;2023-04-06T04:06:18;9.81;88.18
68912;SHT31;55953;51.650;-0.522;2023-04-06T04:08:46;9.80;88.08
68912;SHT31;55953;51.650;-0.522;2023-04-06T04:11:14;9.82;88.13
68912;SHT31;55953;51.650;-0.522;2023-04-06T04:13:44;9.81;88.13
68912;SHT31;55953;51.650;-0.522;2023-04-06T04:16:13;9.84;88.22
68912;SHT31;55953;51.650;-0.522;2023-04-06T04:18:41;9.85;88.15
68912;SHT31;55953;51.650;-0.522;2023-04-06T04:21:11;9.87;88.03
68912;SHT31;55953;51.650;-0.522;2023-04-06T04:23:39;9.88;88.22
68912;SHT31;55953;51.650;-0.522;2023-04-06T04:26:06;9.91;88.08
68912;SHT31;55953;51.650;-0.522;2023-04-06T04:28:34;9.94;88.03
68912;SHT31;55953;51.650;-0.522;2023-04-06T04:31:02;9.95;88.11
68912;SHT31;55953;51.650;-0.522;2023-04-06T04:33:31;9.99;87.96
68912;SHT31;55953;51.650;-0.522;2023-04-06T04:36:01;10.01;87.98
68912;SHT31;55953;51.650;-0.522;2023-04-06T04:38:32;9.99;87.95
68912;SHT31;55953;51.650;-0.522;2023-04-06T04:41:00;9.99;87.97
68912;SHT31;55953;51.650;-0.522;2023-04-06T04:43:29;10.01;87.94
68912;SHT31;55953;51.650;-0.522;2023-04-06T04:46:00;10.00;88.03
68912;SHT31;55953;51.650;-0.522;2023-04-06T04:48:39;10.02;88.05
68912;SHT31;55953;51.650;-0.522;2023-04-06T04:51:08;10.02;87.99
68912;SHT31;55953;51.650;-0.522;2023-04-06T04:53:46;10.02;88.01
68912;SHT31;55953;51.650;-0.522;2023-04-06T04:56:21;10.02;87.99
68912;SHT31;55953;51.650;-0.522;2023-04-06T04:58:52;10.01;88.03
68912;SHT31;55953;51.650;-0.522;2023-04-06T05:01:20;10.01;88.05
68912;SHT31;55953;51.650;-0.522;2023-04-06T05:03:48;10.02;88.15
68912;SHT31;55953;51.650;-0.522;2023-04-06T05:06:17;10.05;88.11
68912;SHT31;55953;51.650;-0.522;2023-04-06T05:08:46;10.04;88.00
68912;SHT31;55953;51.650;-0.522;2023-04-06T05:11:14;10.06;88.18
68912;SHT31;55953;51.650;-0.522;2023-04-06T05:13:45;10.07;88.12
68912;SHT31;55953;51.650;-0.522;2023-04-06T05:16:17;10.10;88.06
68912;SHT31;55953;51.650;-0.522;2023-04-06T05:18:45;10.13;88.06
68912;SHT31;55953;51.650;-0.522;2023-04-06T05:21:13;10.12;88.05
68912;SHT31;55953;51.650;-0.522;2023-04-06T05:23:51;10.13;87.96
68912;SHT31;55953;51.650;-0.522;2023-04-06T05:26:19;10.12;88.04
68912;SHT31;55953;51.650;-0.522;2023-04-06T05:28:47;10.16;88.03
68912;SHT31;55953;51.650;-0.522;2023-04-06T05:31:16;10.19;87.95
68912;SHT31;55953;51.650;-0.522;2023-04-06T05:33:47;10.20;87.87
68912;SHT31;55953;51.650;-0.522;2023-04-06T05:36:16;10.21;87.86
68912;SHT31;55953;51.650;-0.522;2023-04-06T05:38:46;10.23;87.87
68912;SHT31;55953;51.650;-0.522;2023-04-06T05:41:33;10.23;87.84
68912;SHT31;55953;51.650;-0.522;2023-04-06T05:44:01;10.25;87.89
68912;SHT31;55953;51.650;-0.522;2023-04-06T05:46:29;10.28;87.85
68912;SHT31;55953;51.650;-0.522;2023-04-06T05:48:59;10.30;87.79
68912;SHT31;55953;51.650;-0.522;2023-04-06T05:51:30;10.33;87.69
68912;SHT31;55953;51.650;-0.522;2023-04-06T05:53:57;10.35;87.72
68912;SHT31;55953;51.650;-0.522;2023-04-06T05:56:26;10.36;87.69
68912;SHT31;55953;51.650;-0.522;2023-04-06T05:58:54;10.40;87.65
68912;SHT31;55953;51.650;-0.522;2023-04-06T06:01:26;10.47;87.60
68912;SHT31;55953;51.650;-0.522;2023-04-06T06:03:54;10.49;87.49
68912;SHT31;55953;51.650;-0.522;2023-04-06T06:06:24;10.49;87.40
68912;SHT31;55953;51.650;-0.522;2023-04-06T06:09:18;10.51;87.39
68912;SHT31;55953;51.650;-0.522;2023-04-06T06:11:59;10.51;87.35
68912;SHT31;55953;51.650;-0.522;2023-04-06T06:14:28;10.49;87.27
68912;SHT31;55953;51.650;-0.522;2023-04-06T06:16:57;10.48;87.37
68912;SHT31;55953;51.650;-0.522;2023-04-06T06:19:24;10.49;87.27
68912;SHT31;55953;51.650;-0.522;2023-04-06T06:21:56;10.49;87.24
68912;SHT31;55953;51.650;-0.522;2023-04-06T06:24:24;10.48;87.23
68912;SHT31;55953;51.650;-0.522;2023-04-06T06:26:52;10.47;87.32
68912;SHT31;55953;51.650;-0.522;2023-04-06T06:29:22;10.50;87.34
68912;SHT31;55953;51.650;-0.522;2023-04-06T06:31:51;10.55;87.35
68912;SHT31;55953;51.650;-0.522;2023-04-06T06:34:19;10.63;87.25
68912;SHT31;55953;51.650;-0.522;2023-04-06T06:36:48;10.72;87.13
68912;SHT31;55953;51.650;-0.522;2023-04-06T06:39:19;10.79;87.00
68912;SHT31;55953;51.650;-0.522;2023-04-06T06:41:48;10.89;86.92
68912;SHT31;55953;51.650;-0.522;2023-04-06T06:44:17;11.04;86.88
68912;SHT31;55953;51.650;-0.522;2023-04-06T06:46:45;11.19;86.51
68912;SHT31;55953;51.650;-0.522;2023-04-06T06:49:13;11.30;86.34
68912;SHT31;55953;51.650;-0.522;2023-04-06T06:51:41;11.40;86.18
68912;SHT31;55953;51.650;-0.522;2023-04-06T06:54:09;11.45;85.92
68912;SHT31;55953;51.650;-0.522;2023-04-06T06:56:38;11.38;85.66
68912;SHT31;55953;51.650;-0.522;2023-04-06T06:59:06;11.28;85.65
68912;SHT31;55953;51.650;-0.522;2023-04-06T07:01:35;11.18;85.63
68912;SHT31;55953;51.650;-0.522;2023-04-06T07:04:04;11.09;85.75
68912;SHT31;55953;51.650;-0.522;2023-04-06T07:06:32;11.05;85.84
68912;SHT31;55953;51.650;-0.522;2023-04-06T07:09:00;10.98;85.69
68912;SHT31;55953;51.650;-0.522;2023-04-06T07:11:30;10.94;85.78
68912;SHT31;55953;51.650;-0.522;2023-04-06T07:13:58;10.92;85.96
68912;SHT31;55953;51.650;-0.522;2023-04-06T07:16:26;10.92;85.92
68912;SHT31;55953;51.650;-0.522;2023-04-06T07:18:55;10.93;85.97
68912;SHT31;55953;51.650;-0.522;2023-04-06T07:21:23;10.92;85.96
68912;SHT31;55953;51.650;-0.522;2023-04-06T07:23:51;10.97;86.11
68912;SHT31;55953;51.650;-0.522;2023-04-06T07:26:19;11.02;85.90
68912;SHT31;55953;51.650;-0.522;2023-04-06T07:28:47;11.03;85.67
68912;SHT31;55953;51.650;-0.522;2023-04-06T07:31:15;11.06;85.35
68912;SHT31;55953;51.650;-0.522;2023-04-06T07:33:44;11.10;84.97
68912;SHT31;55953;51.650;-0.522;2023-04-06T07:36:12;11.20;85.16
68912;SHT31;55953;51.650;-0.522;2023-04-06T07:38:40;11.25;84.95
68912;SHT31;55953;51.650;-0.522;2023-04-06T07:41:09;11.19;84.44
68912;SHT31;55953;51.650;-0.522;2023-04-06T07:43:37;11.14;84.49
68912;SHT31;55953;51.650;-0.522;2023-04-06T07:46:07;11.16;84.66
68912;SHT31;55953;51.650;-0.522;2023-04-06T07:48:35;11.17;84.57
68912;SHT31;55953;51.650;-0.522;2023-04-06T07:51:05;11.20;84.50
68912;SHT31;55953;51.650;-0.522;2023-04-06T07:53:36;11.20;84.21
68912;SHT31;55953;51.650;-0.522;2023-04-06T07:56:04;11.26;84.05
68912;SHT31;55953;51.650;-0.522;2023-04-06T07:58:32;11.36;83.77
68912;SHT31;55953;51.650;-0.522;2023-04-06T08:01:00;11.45;82.77
68912;SHT31;55953;51.650;-0.522;2023-04-06T08:03:29;11.56;82.74
68912;SHT31;55953;51.650;-0.522;2023-04-06T08:05:57;11.66;82.69
68912;SHT31;55953;51.650;-0.522;2023-04-06T08:08:25;11.74;82.04
68912;SHT31;55953;51.650;-0.522;2023-04-06T08:10:54;11.77;81.76
68912;SHT31;55953;51.650;-0.522;2023-04-06T08:13:22;11.76;81.61
68912;SHT31;55953;51.650;-0.522;2023-04-06T08:15:50;11.83;81.91
68912;SHT31;55953;51.650;-0.522;2023-04-06T08:18:18;11.86;81.68
68912;SHT31;55953;51.650;-0.522;2023-04-06T08:20:46;11.77;81.20
68912;SHT31;55953;51.650;-0.522;2023-04-06T08:23:14;11.73;81.83
68912;SHT31;55953;51.650;-0.522;2023-04-06T08:25:43;11.68;81.52
68912;SHT31;55953;51.650;-0.522;2023-04-06T08:28:11;11.65;81.79
68912;SHT31;55953;51.650;-0.522;2023-04-06T08:30:42;11.65;81.88
68912;SHT31;55953;51.650;-0.522;2023-04-06T08:33:10;11.66;81.70
68912;SHT31;55953;51.650;-0.522;2023-04-06T08:35:38;11.69;81.31
68912;SHT31;55953;51.650;-0.522;2023-04-06T08:38:06;11.65;81.21
68912;SHT31;55953;51.650;-0.522;2023-04-06T08:40:36;11.63;81.50
68912;SHT31;55953;51.650;-0.522;2023-04-06T08:43:09;11.64;81.54
68912;SHT31;55953;51.650;-0.522;2023-04-06T08:45:41;11.59;81.18
68912;SHT31;55953;51.650;-0.522;2023-04-06T08:48:10;11.59;81.31
68912;SHT31;55953;51.650;-0.522;2023-04-06T08:50:40;11.68;81.51
68912;SHT31;55953;51.650;-0.522;2023-04-06T08:53:09;11.78;81.44
68912;SHT31;55953;51.650;-0.522;2023-04-06T08:55:39;11.77;81.04
68912;SHT31;55953;51.650;-0.522;2023-04-06T08:58:07;11.73;81.08
68912;SHT31;55953;51.650;-0.522;2023-04-06T09:00:39;11.70;81.01
68912;SHT31;55953;51.650;-0.522;2023-04-06T09:03:07;11.72;81.32
68912;SHT31;55953;51.650;-0.522;2023-04-06T09:05:37;11.76;81.30
68912;SHT31;55953;51.650;-0.522;2023-04-06T09:08:06;11.86;80.60
68912;SHT31;55953;51.650;-0.522;2023-04-06T09:10:34;12.07;80.51
68912;SHT31;55953;51.650;-0.522;2023-04-06T09:13:02;12.20;79.10
68912;SHT31;55953;51.650;-0.522;2023-04-06T09:15:32;12.32;78.86
68912;SHT31;55953;51.650;-0.522;2023-04-06T09:18:01;12.44;78.40
68912;SHT31;55953;51.650;-0.522;2023-04-06T09:20:30;12.61;78.61
68912;SHT31;55953;51.650;-0.522;2023-04-06T09:22:58;12.82;77.51
68912;SHT31;55953;51.650;-0.522;2023-04-06T09:25:26;12.91;76.55
68912;SHT31;55953;51.650;-0.522;2023-04-06T09:27:58;12.81;75.09
68912;SHT31;55953;51.650;-0.522;2023-04-06T09:30:28;12.78;75.50
68912;SHT31;55953;51.650;-0.522;2023-04-06T09:32:57;12.72;75.47
68912;SHT31;55953;51.650;-0.522;2023-04-06T09:35:27;12.71;75.66
68912;SHT31;55953;51.650;-0.522;2023-04-06T09:37:57;12.73;75.35
68912;SHT31;55953;51.650;-0.522;2023-04-06T09:40:25;12.83;75.33
68912;SHT31;55953;51.650;-0.522;2023-04-06T09:42:53;12.86;74.60
68912;SHT31;55953;51.650;-0.522;2023-04-06T09:45:25;12.84;74.70
68912;SHT31;55953;51.650;-0.522;2023-04-06T09:47:57;12.94;74.76
68912;SHT31;55953;51.650;-0.522;2023-04-06T09:50:27;12.98;74.99
68912;SHT31;55953;51.650;-0.522;2023-04-06T09:52:55;12.91;74.67
68912;SHT31;55953;51.650;-0.522;2023-04-06T09:55:39;12.83;75.20
68912;SHT31;55953;51.650;-0.522;2023-04-06T09:58:12;12.84;75.16
68912;SHT31;55953;51.650;-0.522;2023-04-06T10:03:26;13.17;74.62
68912;SHT31;55953;51.650;-0.522;2023-04-06T10:06:05;13.12;72.84
68912;SHT31;55953;51.650;-0.522;2023-04-06T10:08:40;13.38;73.70
68912;SHT31;55953;51.650;-0.522;2023-04-06T10:11:15;13.48;72.30
68912;SHT31;55953;51.650;-0.522;2023-04-06T10:13:44;13.51;72.16
68912;SHT31;55953;51.650;-0.522;2023-04-06T10:16:15;13.48;72.03
68912;SHT31;55953;51.650;-0.522;2023-04-06T10:18:46;13.53;71.53
68912;SHT31;55953;51.650;-0.522;2023-04-06T10:21:21;13.71;72.21
68912;SHT31;55953;51.650;-0.522;2023-04-06T10:23:56;13.88;70.92
68912;SHT31;55953;51.650;-0.522;2023-04-06T10:26:28;14.02;70.28
68912;SHT31;55953;51.650;-0.522;2023-04-06T10:29:01;14.09;69.96
68912;SHT31;55953;51.650;-0.522;2023-04-06T10:31:31;14.05;69.27
68912;SHT31;55953;51.650;-0.522;2023-04-06T10:34:00;14.06;69.66
68912;SHT31;55953;51.650;-0.522;2023-04-06T10:36:33;14.20;70.08
68912;SHT31;55953;51.650;-0.522;2023-04-06T10:39:03;14.35;69.74
68912;SHT31;55953;51.650;-0.522;2023-04-06T10:41:34;14.34;68.21
68912;SHT31;55953;51.650;-0.522;2023-04-06T10:44:03;14.38;68.48
68912;SHT31;55953;51.650;-0.522;2023-04-06T10:46:32;14.52;68.42
68912;SHT31;55953;51.650;-0.522;2023-04-06T10:49:10;14.53;66.96
68912;SHT31;55953;51.650;-0.522;2023-04-06T10:51:39;14.47;66.12
68912;SHT31;55953;51.650;-0.522;2023-04-06T10:54:07;14.36;66.14
68912;SHT31;55953;51.650;-0.522;2023-04-06T10:56:38;14.41;67.17
68912;SHT31;55953;51.650;-0.522;2023-04-06T10:59:06;14.47;67.44
68912;SHT31;55953;51.650;-0.522;2023-04-06T11:01:35;14.48;67.28
68912;SHT31;55953;51.650;-0.522;2023-04-06T11:04:03;14.30;67.01
68912;SHT31;55953;51.650;-0.522;2023-04-06T11:06:31;14.15;67.80
68912;SHT31;55953;51.650;-0.522;2023-04-06T11:08:59;14.07;67.61
68912;SHT31;55953;51.650;-0.522;2023-04-06T11:11:28;14.03;67.57
68912;SHT31;55953;51.650;-0.522;2023-04-06T11:13:59;13.95;67.04
68912;SHT31;55953;51.650;-0.522;2023-04-06T11:16:29;13.92;66.48
68912;SHT31;55953;51.650;-0.522;2023-04-06T11:19:00;13.82;66.50
68912;SHT31;55953;51.650;-0.522;2023-04-06T11:21:48;13.86;66.81
68912;SHT31;55953;51.650;-0.522;2023-04-06T11:24:20;13.98;66.41
68912;SHT31;55953;51.650;-0.522;2023-04-06T11:26:51;14.08;66.09
68912;SHT31;55953;51.650;-0.522;2023-04-06T11:29:26;14.21;65.53
68912;SHT31;55953;51.650;-0.522;2023-04-06T11:32:01;14.39;65.16
68912;SHT31;55953;51.650;-0.522;2023-04-06T11:34:34;14.58;64.16
68912;SHT31;55953;51.650;-0.522;2023-04-06T11:37:09;14.61;63.46
68912;SHT31;55953;51.650;-0.522;2023-04-06T11:39:39;14.68;63.73
68912;SHT31;55953;51.650;-0.522;2023-04-06T11:42:21;14.85;64.16
68912;SHT31;55953;51.650;-0.522;2023-04-06T11:44:51;14.96;63.37
68912;SHT31;55953;51.650;-0.522;2023-04-06T11:47:33;15.12;63.43
68912;SHT31;55953;51.650;-0.522;2023-04-06T11:50:06;15.22;62.61
68912;SHT31;55953;51.650;-0.522;2023-04-06T11:52:41;15.14;62.73
68912;SHT31;55953;51.650;-0.522;2023-04-06T11:55:10;15.04;62.14
68912;SHT31;55953;51.650;-0.522;2023-04-06T11:57:44;14.85;61.61
68912;SHT31;55953;51.650;-0.522;2023-04-06T12:00:12;14.94;63.08
68912;SHT31;55953;51.650;-0.522;2023-04-06T12:02:45;15.08;62.50
68912;SHT31;55953;51.650;-0.522;2023-04-06T12:05:14;15.09;62.29
68912;SHT31;55953;51.650;-0.522;2023-04-06T12:07:42;15.06;61.75
68912;SHT31;55953;51.650;-0.522;2023-04-06T12:10:10;15.13;62.02
68912;SHT31;55953;51.650;-0.522;2023-04-06T12:12:38;15.19;61.19
68912;SHT31;55953;51.650;-0.522;2023-04-06T12:15:06;15.19;61.36
68912;SHT31;55953;51.650;-0.522;2023-04-06T12:17:35;15.24;60.15
68912;SHT31;55953;51.650;-0.522;2023-04-06T12:20:04;15.21;60.77
68912;SHT31;55953;51.650;-0.522;2023-04-06T12:22:51;15.28;61.37
68912;SHT31;55953;51.650;-0.522;2023-04-06T12:25:19;15.27;61.04
68912;SHT31;55953;51.650;-0.522;2023-04-06T12:27:48;15.27;61.55
68912;SHT31;55953;51.650;-0.522;2023-04-06T12:30:16;15.22;60.60
68912;SHT31;55953;51.650;-0.522;2023-04-06T12:32:44;15.20;60.60
68912;SHT31;55953;51.650;-0.522;2023-04-06T12:35:16;15.19;60.68
68912;SHT31;55953;51.650;-0.522;2023-04-06T12:37:44;15.32;60.75
68912;SHT31;55953;51.650;-0.522;2023-04-06T12:40:12;15.31;58.66
68912;SHT31;55953;51.650;-0.522;2023-04-06T12:42:42;15.31;58.73
68912;SHT31;55953;51.650;-0.522;2023-04-06T12:45:10;15.53;59.36
68912;SHT31;55953;51.650;-0.522;2023-04-06T12:47:38;15.85;58.88
68912;SHT31;55953;51.650;-0.522;2023-04-06T12:50:07;15.83;58.40
68912;SHT31;55953;51.650;-0.522;2023-04-06T12:52:35;15.38;56.23
68912;SHT31;55953;51.650;-0.522;2023-04-06T12:55:04;14.94;57.43
68912;SHT31;55953;51.650;-0.522;2023-04-06T12:57:33;14.84;58.32
68912;SHT31;55953;51.650;-0.522;2023-04-06T13:00:01;14.61;58.77
68912;SHT31;55953;51.650;-0.522;2023-04-06T13:02:32;14.38;60.50
68912;SHT31;55953;51.650;-0.522;2023-04-06T13:05:00;14.21;61.35
68912;SHT31;55953;51.650;-0.522;2023-04-06T13:07:28;14.14;62.13
68912;SHT31;55953;51.650;-0.522;2023-04-06T13:09:56;13.87;62.60
68912;SHT31;55953;51.650;-0.522;2023-04-06T13:12:24;13.65;63.31
68912;SHT31;55953;51.650;-0.522;2023-04-06T13:14:53;13.65;64.33
68912;SHT31;55953;51.650;-0.522;2023-04-06T13:17:21;13.68;64.60
68912;SHT31;55953;51.650;-0.522;2023-04-06T13:19:50;13.85;65.09
68912;SHT31;55953;51.650;-0.522;2023-04-06T13:22:17;13.96;64.64
68912;SHT31;55953;51.650;-0.522;2023-04-06T13:24:45;13.97;64.71
68912;SHT31;55953;51.650;-0.522;2023-04-06T13:27:13;14.09;64.51
68912;SHT31;55953;51.650;-0.522;2023-04-06T13:29:42;14.23;63.95
68912;SHT31;55953;51.650;-0.522;2023-04-06T13:32:10;14.36;64.09
68912;SHT31;55953;51.650;-0.522;2023-04-06T13:34:38;14.66;62.84
68912;SHT31;55953;51.650;-0.522;2023-04-06T13:37:06;14.81;60.41
68912;SHT31;55953;51.650;-0.522;2023-04-06T13:39:34;14.87;59.24
68912;SHT31;55953;51.650;-0.522;2023-04-06T13:42:02;14.96;57.58
68912;SHT31;55953;51.650;-0.522;2023-04-06T13:44:30;14.95;56.34
68912;SHT31;55953;51.650;-0.522;2023-04-06T13:46:58;14.86;55.60
68912;SHT31;55953;51.650;-0.522;2023-04-06T13:49:27;14.86;56.54
68912;SHT31;55953;51.650;-0.522;2023-04-06T13:51:54;14.91;55.74
68912;SHT31;55953;51.650;-0.522;2023-04-06T13:54:22;15.05;56.14
68912;SHT31;55953;51.650;-0.522;2023-04-06T13:56:51;15.18;56.10
68912;SHT31;55953;51.650;-0.522;2023-04-06T13:59:19;15.21;56.29
68912;SHT31;55953;51.650;-0.522;2023-04-06T14:01:47;15.11;56.25
68912;SHT31;55953;51.650;-0.522;2023-04-06T14:04:15;14.41;58.24
68912;SHT31;55953;51.650;-0.522;2023-04-06T14:06:44;13.26;63.26
68912;SHT31;55953;51.650;-0.522;2023-04-06T14:09:13;12.26;67.41
68912;SHT31;55953;51.650;-0.522;2023-04-06T14:11:41;11.56;71.61
68912;SHT31;55953;51.650;-0.522;2023-04-06T14:14:08;11.06;73.77
68912;SHT31;55953;51.650;-0.522;2023-04-06T14:16:37;10.73;74.45
68912;SHT31;55953;51.650;-0.522;2023-04-06T14:19:05;10.54;75.47
68912;SHT31;55953;51.650;-0.522;2023-04-06T14:21:33;10.44;76.06
68912;SHT31;55953;51.650;-0.522;2023-04-06T14:24:01;10.40;75.99
68912;SHT31;55953;51.650;-0.522;2023-04-06T14:26:29;10.43;76.28
68912;SHT31;55953;51.650;-0.522;2023-04-06T14:28:57;10.48;77.11
68912;SHT31;55953;51.650;-0.522;2023-04-06T14:31:27;10.54;77.07
68912;SHT31;55953;51.650;-0.522;2023-04-06T14:33:56;10.68;77.56
68912;SHT31;55953;51.650;-0.522;2023-04-06T14:36:24;10.84;77.39
68912;SHT31;55953;51.650;-0.522;2023-04-06T14:38:56;11.01;77.18
68912;SHT31;55953;51.650;-0.522;2023-04-06T14:41:24;11.17;77.74
68912;SHT31;55953;51.650;-0.522;2023-04-06T14:43:52;11.30;77.74
68912;SHT31;55953;51.650;-0.522;2023-04-06T14:46:20;11.47;76.97
68912;SHT31;55953;51.650;-0.522;2023-04-06T14:48:49;11.69;76.98
68912;SHT31;55953;51.650;-0.522;2023-04-06T14:51:18;11.98;77.00
68912;SHT31;55953;51.650;-0.522;2023-04-06T14:53:46;12.19;77.04
68912;SHT31;55953;51.650;-0.522;2023-04-06T14:56:18;12.23;75.02
68912;SHT31;55953;51.650;-0.522;2023-04-06T14:58:50;12.19;74.50
68912;SHT31;55953;51.650;-0.522;2023-04-06T15:01:18;12.06;74.96
68912;SHT31;55953;51.650;-0.522;2023-04-06T15:03:48;12.03;76.20
68912;SHT31;55953;51.650;-0.522;2023-04-06T15:06:17;11.97;75.67
68912;SHT31;55953;51.650;-0.522;2023-04-06T15:08:48;11.87;75.16
68912;SHT31;55953;51.650;-0.522;2023-04-06T15:11:17;11.79;74.37
68912;SHT31;55953;51.650;-0.522;2023-04-06T15:13:45;11.80;74.10
68912;SHT31;55953;51.650;-0.522;2023-04-06T15:16:14;11.90;72.88
68912;SHT31;55953;51.650;-0.522;2023-04-06T15:18:42;12.07;73.76
68912;SHT31;55953;51.650;-0.522;2023-04-06T15:21:11;12.28;73.69
68912;SHT31;55953;51.650;-0.522;2023-04-06T15:23:39;12.39;73.09
68912;SHT31;55953;51.650;-0.522;2023-04-06T15:26:07;12.40;72.90
68912;SHT31;55953;51.650;-0.522;2023-04-06T15:28:35;12.48;75.01
68912;SHT31;55953;51.650;-0.522;2023-04-06T15:31:03;12.49;75.03
68912;SHT31;55953;51.650;-0.522;2023-04-06T15:34:03;12.38;75.14
68912;SHT31;55953;51.650;-0.522;2023-04-06T15:36:35;12.28;75.23
68912;SHT31;55953;51.650;-0.522;2023-04-06T15:39:04;12.21;75.83